Thomas, New Mexico
Current Conditions -  °F | °C
As of 12:55 AM on Saturday 25 Oct 2014 (Local Time) from KCAO Reporting Station
Clear Clear  
Wind Chill: 14°   Ceiling: Unl
Heat Index: 14°   Visibility: 10mi
Dew Point:   Wind: 7mph
Humidity: 39%   Direction: 250°WSW
Pressure: 30.19"   Gusts: NA
Location:  36.2639°N, 103.376°W
Report Text: KCAO 250655Z AUTO 25006KT 10SM CLR 14/01 A3019 RMK AO2 SLP162 T01440006 402890111
Loading
Personal Weather Stations






























Interactive Weather Map
Tropical Storm Tracking
New forecast layout! Learn more

10-Day Weather Forecast

Advertisements
Track Severe Weather on mobile